createdAt,value
2023-02-15T17:02:06.188Z,22.00
2023-02-15T17:03:38.622Z,20.80
2023-02-15T17:05:14.752Z,23.00
2023-02-15T17:07:08.176Z,21.20
2023-02-15T17:08:44.347Z,20.20
2023-02-15T17:10:37.615Z,18.00
2023-02-15T17:12:10.720Z,22.20
2023-02-15T17:14:11.055Z,23.00
2023-02-15T17:15:44.802Z,21.40
2023-02-15T17:17:16.723Z,23.00
2023-02-15T17:18:48.608Z,23.40
2023-02-15T17:20:20.602Z,23.40
2023-02-15T17:21:54.714Z,24.20
2023-02-15T17:23:29.133Z,22.80
2023-02-15T17:25:02.492Z,21.20
2023-02-15T17:26:36.356Z,21.20
2023-02-15T17:28:17.252Z,12.80
2023-02-15T17:29:56.059Z,24.40
2023-02-15T17:31:33.023Z,21.80
2023-02-15T17:33:05.808Z,22.20
2023-02-15T17:34:57.411Z,14.00
2023-02-15T17:36:31.061Z,23.60
2023-02-15T17:38:18.905Z,21.00
2023-02-15T17:39:50.843Z,22.40
2023-02-15T17:41:22.980Z,15.20
2023-02-15T17:42:55.091Z,20.20
2023-02-15T17:44:27.056Z,23.20
2023-02-15T17:45:59.076Z,22.20
2023-02-15T17:47:31.603Z,21.40
2023-02-15T17:49:03.861Z,21.40
2023-02-15T17:50:36.100Z,21.40
2023-02-15T17:52:14.986Z,21.00
2023-02-15T17:54:07.420Z,23.60
2023-02-15T17:55:39.487Z,21.20
2023-02-15T17:57:14.450Z,22.00
2023-02-15T17:58:46.424Z,19.60
2023-02-15T18:00:37.385Z,22.60
2023-02-15T18:02:28.824Z,21.00
2023-02-15T18:04:19.358Z,22.20
2023-02-15T18:06:10.266Z,23.40
2023-02-15T18:08:01.068Z,24.40
2023-02-15T18:09:51.788Z,23.40
2023-02-15T18:11:39.248Z,30.20
2023-02-15T18:13:11.299Z,37.00
2023-02-15T18:14:43.623Z,43.50
2023-02-15T18:16:17.681Z,44.75
2023-02-15T18:17:50.269Z,39.25
2023-02-15T18:19:23.779Z,58.75
2023-02-15T18:20:55.722Z,61.80
2023-02-15T18:22:27.949Z,65.60
2023-02-15T18:23:59.959Z,69.40
2023-02-15T18:25:31.844Z,71.00
2023-02-15T18:27:04.581Z,75.50
2023-02-15T18:28:36.496Z,79.00
2023-02-15T18:30:09.093Z,84.75
2023-02-15T18:31:41.489Z,84.25
2023-02-15T18:33:35.373Z,88.00
2023-02-15T18:35:07.791Z,94.00
2023-02-15T18:36:44.183Z,84.75
2023-02-15T18:38:16.138Z,96.00
2023-02-15T18:39:51.789Z,92.75
2023-02-15T18:41:24.343Z,98.50
2023-02-15T18:42:57.697Z,108.25
2023-02-15T18:44:30.000Z,96.50
2023-02-15T18:46:02.347Z,115.50
2023-02-15T18:47:34.659Z,111.25
2023-02-15T18:49:07.128Z,109.50
2023-02-15T18:50:39.540Z,111.00
2023-02-15T18:52:19.077Z,111.75
2023-02-15T18:53:53.014Z,117.75
2023-02-15T18:55:26.565Z,114.50
2023-02-15T18:56:59.374Z,120.00
2023-02-15T18:58:31.254Z,118.25
2023-02-15T19:00:03.899Z,119.00
2023-02-15T19:01:35.908Z,120.25
2023-02-15T19:03:07.900Z,120.25
2023-02-15T19:04:39.856Z,115.00
2023-02-15T19:06:12.646Z,103.25
2023-02-15T19:07:48.573Z,107.50
2023-02-15T19:09:23.037Z,110.75
2023-02-15T19:11:01.666Z,105.00
2023-02-15T19:12:33.990Z,110.00
2023-02-15T19:14:06.418Z,104.00
2023-02-15T19:15:38.491Z,104.75
2023-02-15T19:17:17.873Z,104.75
2023-02-15T19:18:50.186Z,100.00
2023-02-15T19:20:31.073Z,96.00
2023-02-15T19:22:03.351Z,100.75
2023-02-15T19:23:36.907Z,100.50
2023-02-15T19:25:13.292Z,90.50
2023-02-15T19:26:46.159Z,94.50
2023-02-15T19:28:38.434Z,94.00
2023-02-15T19:30:30.125Z,88.75
2023-02-15T19:32:02.378Z,76.75
2023-02-15T19:33:34.826Z,82.75
2023-02-15T19:35:07.120Z,87.75
2023-02-15T19:36:39.013Z,75.25
2023-02-15T19:38:19.738Z,74.25
2023-02-15T19:39:51.676Z,78.25
2023-02-15T19:41:25.417Z,75.25
2023-02-15T19:42:57.538Z,75.50
2023-02-15T19:44:29.461Z,71.40
2023-02-15T19:46:01.711Z,71.60
2023-02-15T19:47:33.785Z,72.20
2023-02-15T19:49:05.796Z,70.40
2023-02-15T19:50:37.647Z,73.80
2023-02-15T19:52:17.694Z,67.80
2023-02-15T19:53:49.616Z,66.40
2023-02-15T19:55:34.445Z,67.60
2023-02-15T19:57:09.527Z,64.60
2023-02-15T19:58:41.471Z,70.80
2023-02-15T20:00:22.281Z,65.40
2023-02-15T20:01:54.785Z,59.00
2023-02-15T20:03:26.742Z,66.80
2023-02-15T20:04:58.715Z,66.00
2023-02-15T20:06:30.580Z,66.40
2023-02-15T20:08:04.433Z,72.40
2023-02-15T20:09:40.836Z,75.00
2023-02-15T20:11:13.204Z,81.50
2023-02-15T20:12:45.320Z,86.75
2023-02-15T20:14:17.174Z,93.00
2023-02-15T20:15:49.443Z,99.25
2023-02-15T20:17:21.415Z,94.25
2023-02-15T20:18:53.310Z,89.50
2023-02-15T20:20:30.047Z,99.75
2023-02-15T20:22:01.918Z,102.25
2023-02-15T20:23:36.900Z,101.00
2023-02-15T20:25:20.010Z,108.25
2023-02-15T20:26:52.264Z,109.75
2023-02-15T20:28:25.675Z,107.25
2023-02-15T20:29:57.640Z,112.25
2023-02-15T20:31:29.886Z,108.00
2023-02-15T20:33:01.868Z,109.50
2023-02-15T20:34:33.725Z,107.75
2023-02-15T20:36:05.930Z,112.75
2023-02-15T20:37:37.867Z,108.00
2023-02-15T20:39:15.654Z,106.75
2023-02-15T20:41:07.383Z,108.75
2023-02-15T20:42:39.310Z,109.75
2023-02-15T20:44:19.641Z,106.00
2023-02-15T20:45:51.526Z,118.00
2023-02-15T20:47:27.584Z,110.00
2023-02-15T20:48:59.600Z,108.75
2023-02-15T20:50:32.422Z,103.25
2023-02-15T20:52:05.278Z,107.25
2023-02-15T20:53:37.177Z,119.25
2023-02-15T20:55:21.699Z,120.25
2023-02-15T20:56:54.521Z,123.00
2023-02-15T20:58:29.148Z,127.33
2023-02-15T21:00:01.257Z,125.67
2023-02-15T21:01:33.153Z,170.00
2023-02-15T21:03:07.757Z,183.50
2023-02-15T21:04:39.961Z,175.25
2023-02-15T21:06:18.355Z,169.50
2023-02-15T21:07:50.506Z,156.50
2023-02-15T21:09:22.441Z,165.75
2023-02-15T21:10:54.572Z,141.67
2023-02-15T21:12:26.490Z,130.00
2023-02-15T21:13:58.333Z,121.25
2023-02-15T21:15:39.978Z,113.75
2023-02-15T21:17:15.286Z,118.25
2023-02-15T21:18:47.469Z,116.50
2023-02-15T21:20:19.787Z,124.00
2023-02-15T21:21:52.517Z,128.00
2023-02-15T21:23:26.426Z,125.33
2023-02-15T21:24:58.326Z,123.33
2023-02-15T21:26:30.253Z,128.00
2023-02-15T21:28:02.517Z,119.00
2023-02-15T21:29:35.999Z,124.33
2023-02-15T21:31:19.483Z,123.50
2023-02-15T21:32:51.703Z,121.50
2023-02-15T21:34:23.626Z,123.00
2023-02-15T21:35:56.505Z,106.50
2023-02-15T21:37:31.846Z,125.50
2023-02-15T21:39:03.884Z,112.25
2023-02-15T21:40:35.796Z,114.00
2023-02-15T21:42:28.258Z,118.75
2023-02-15T21:44:18.429Z,110.25
2023-02-15T21:46:09.159Z,114.50
2023-02-15T21:47:53.034Z,108.75
2023-02-15T21:49:24.870Z,100.25
2023-02-15T21:51:15.541Z,107.50
2023-02-15T21:52:47.615Z,110.00
2023-02-15T21:54:19.847Z,98.00
2023-02-15T21:55:53.451Z,101.25
2023-02-15T21:57:25.728Z,98.00
2023-02-15T21:58:57.705Z,97.25
2023-02-15T22:00:29.936Z,96.75
2023-02-15T22:02:02.375Z,98.75
2023-02-15T22:03:37.898Z,94.25
2023-02-15T22:05:18.176Z,92.75
2023-02-15T22:06:50.167Z,90.25
2023-02-15T22:08:22.050Z,94.75
2023-02-15T22:09:54.563Z,81.00
2023-02-15T22:11:28.721Z,90.00
2023-02-15T22:13:02.747Z,75.75
2023-02-15T22:14:35.846Z,78.75
2023-02-15T22:16:07.813Z,79.75
2023-02-15T22:17:39.656Z,72.25
2023-02-15T22:19:11.945Z,83.50
2023-02-15T22:20:43.777Z,78.25
2023-02-15T22:22:16.015Z,81.75
2023-02-15T22:23:47.904Z,71.00
2023-02-15T22:25:22.137Z,78.25
2023-02-15T22:26:54.370Z,57.75
2023-02-15T22:28:37.627Z,78.50
2023-02-15T22:30:21.858Z,72.50
2023-02-15T22:31:54.020Z,70.50
2023-02-15T22:33:28.239Z,71.50
2023-02-15T22:35:00.093Z,67.20
2023-02-15T22:36:32.107Z,67.00
2023-02-15T22:38:04.014Z,61.20
2023-02-15T22:39:35.938Z,61.00
2023-02-15T22:41:09.618Z,65.60
2023-02-15T22:42:41.537Z,70.00
2023-02-15T22:44:13.437Z,64.80
2023-02-15T22:45:45.338Z,61.20
2023-02-15T22:47:21.642Z,60.00
2023-02-15T22:48:53.781Z,63.40
2023-02-15T22:50:27.942Z,64.60
2023-02-15T22:51:59.790Z,57.25
2023-02-15T22:53:31.700Z,53.75
2023-02-15T22:55:03.624Z,62.75
2023-02-15T22:56:38.977Z,59.75
2023-02-15T22:58:21.486Z,60.00
2023-02-15T22:59:53.455Z,63.00
2023-02-15T23:01:29.324Z,63.00
2023-02-15T23:03:01.231Z,77.25
2023-02-15T23:04:33.091Z,81.50
2023-02-15T23:06:05.223Z,88.25
2023-02-15T23:07:37.388Z,89.50
2023-02-15T23:09:09.375Z,88.75
2023-02-15T23:10:41.453Z,93.00
2023-02-15T23:12:50.765Z,91.00
2023-02-15T23:14:22.532Z,94.75
2023-02-15T23:16:04.935Z,90.25
2023-02-15T23:17:36.804Z,92.25
2023-02-15T23:19:10.739Z,86.75
2023-02-15T23:20:42.712Z,88.50
2023-02-15T23:22:15.773Z,91.50
2023-02-15T23:23:52.459Z,85.00
2023-02-15T23:25:28.035Z,98.00
2023-02-15T23:27:20.011Z,106.50
2023-02-15T23:28:52.317Z,116.50
2023-02-15T23:30:24.256Z,111.50
2023-02-15T23:31:57.061Z,108.25
2023-02-15T23:33:31.847Z,107.75
